Terminal Aerodrome Forecast
Issued by NWS Sioux Falls, SD

Home | Current Version | Previous Version | Text Only | Print | Product List | Glossary Off
Versions: 1 2 3 4 5 6 7 8 9 10 11 12 13 14 15

000
FTUS43 KFSD 081120
TAFSUX
TAF
KSUX 081120Z 0812/0912 32007KT P6SM OVC120
     FM081400 33011KT P6SM BKN025
     FM081800 32012KT P6SM OVC025
     FM082200 31013KT P6SM SCT025 BKN150
     FM090300 32014KT P6SM FEW020 SCT100=

USA.gov is the U.S. government's official web portal to all federal, state and local government web resources and services.